createdAt,value
2023-07-18T00:02:12.099Z,98681.06
2023-07-18T00:04:40.766Z,98746.78
2023-07-18T00:07:08.049Z,98759.44
2023-07-18T00:09:36.872Z,98759.44
2023-07-18T00:12:04.103Z,98756.38
2023-07-18T00:14:31.040Z,98690.13
2023-07-18T00:16:58.337Z,98744.94
2023-07-18T00:19:25.692Z,98740.25
2023-07-18T00:21:52.554Z,98724.75
2023-07-18T00:24:19.627Z,98720.69
2023-07-18T00:26:46.560Z,98740.03
2023-07-18T00:29:13.388Z,98467.72
2023-07-18T00:31:40.166Z,98732.91
2023-07-18T00:34:08.156Z,98706.53
2023-07-18T00:36:34.865Z,98715.53
2023-07-18T00:39:01.550Z,98676.94
2023-07-18T00:41:28.337Z,98693.50
2023-07-18T00:43:55.248Z,98716.94
2023-07-18T00:46:22.751Z,98726.34
2023-07-18T00:48:50.009Z,98725.50
2023-07-18T00:51:17.386Z,98718.56
2023-07-18T00:53:44.552Z,98724.50
2023-07-18T00:56:11.578Z,98723.06
2023-07-18T00:58:38.483Z,98718.16
2023-07-18T01:01:08.263Z,98639.72
2023-07-18T01:03:38.861Z,98706.09
2023-07-18T01:06:06.784Z,98661.66
2023-07-18T01:08:33.708Z,98720.47
2023-07-18T01:11:00.515Z,98722.31
2023-07-18T01:13:27.707Z,98568.88
2023-07-18T01:15:54.924Z,98717.56
2023-07-18T01:18:21.708Z,98719.88
2023-07-18T01:20:49.828Z,98715.41
2023-07-18T01:23:16.755Z,98709.34
2023-07-18T01:25:43.889Z,98597.78
2023-07-18T01:28:11.989Z,98705.66
2023-07-18T01:30:39.004Z,98799.41
2023-07-18T01:33:05.916Z,98830.88
2023-07-18T01:35:32.933Z,98627.56
2023-07-18T01:38:00.174Z,98648.44
2023-07-18T01:40:27.630Z,98749.22
2023-07-18T01:42:55.959Z,98723.41
2023-07-18T01:45:26.991Z,98736.19
2023-07-18T01:47:53.815Z,98644.81
2023-07-18T01:50:21.103Z,98705.22
2023-07-18T01:52:48.847Z,98645.81
2023-07-18T01:55:16.649Z,98704.59
2023-07-18T01:57:48.862Z,98692.03
2023-07-18T02:00:20.639Z,98738.44
2023-07-18T02:02:50.426Z,98727.88
2023-07-18T02:05:19.860Z,98765.31
2023-07-18T02:07:48.144Z,98705.47
2023-07-18T02:10:16.205Z,98745.25
2023-07-18T02:12:42.952Z,98773.28
2023-07-18T02:15:10.500Z,98753.28
2023-07-18T02:17:37.528Z,98749.44
2023-07-18T02:20:07.612Z,98679.84
2023-07-18T02:22:35.711Z,98707.66
2023-07-18T02:25:03.886Z,98684.75
2023-07-18T02:27:33.189Z,98726.63
2023-07-18T02:30:02.037Z,98627.31
2023-07-18T02:32:30.851Z,98665.09
2023-07-18T02:34:58.881Z,98660.66
2023-07-18T02:37:26.401Z,98657.47
2023-07-18T02:39:53.666Z,98701.59
2023-07-18T02:42:21.104Z,98697.50
2023-07-18T02:44:48.848Z,98617.78
2023-07-18T02:47:16.238Z,98691.28
2023-07-18T02:49:42.979Z,98670.84
2023-07-18T02:52:10.123Z,98675.00
2023-07-18T02:54:39.876Z,98654.19
2023-07-18T02:57:07.006Z,98675.28
2023-07-18T02:59:34.079Z,98672.47
2023-07-18T03:02:00.905Z,98651.91
2023-07-18T03:04:28.148Z,98616.22
2023-07-18T03:06:54.955Z,98658.72
2023-07-18T03:09:24.868Z,98662.50
2023-07-18T03:11:51.521Z,98664.59
2023-07-18T03:14:19.815Z,98533.03
2023-07-18T03:16:46.732Z,98666.91
2023-07-18T03:19:15.555Z,98589.94
2023-07-18T03:21:42.379Z,98607.78
2023-07-18T03:24:10.529Z,98510.81
2023-07-18T03:26:40.407Z,98642.91
2023-07-18T03:29:07.576Z,98639.38
2023-07-18T03:31:35.078Z,98586.06
2023-07-18T03:34:05.968Z,98645.63
2023-07-18T03:36:32.955Z,98581.13
2023-07-18T03:38:59.886Z,98598.50
2023-07-18T03:41:27.061Z,98653.47
2023-07-18T03:43:54.541Z,98652.63
2023-07-18T03:46:22.864Z,98616.41
2023-07-18T03:48:49.920Z,98654.25
2023-07-18T03:51:17.419Z,98643.81
2023-07-18T03:53:45.152Z,98644.00
2023-07-18T03:56:12.955Z,98656.63
2023-07-18T03:58:40.434Z,98619.41
2023-07-18T04:01:09.603Z,98615.59
2023-07-18T04:03:37.650Z,98637.00
2023-07-18T04:06:04.729Z,98648.97
2023-07-18T04:08:31.666Z,98612.72
2023-07-18T04:11:01.609Z,98577.13
2023-07-18T04:13:28.600Z,98622.31
2023-07-18T04:15:56.206Z,98635.69
2023-07-18T04:18:23.638Z,98633.22
2023-07-18T04:20:50.905Z,98570.94
2023-07-18T04:23:18.466Z,98614.88
2023-07-18T04:25:59.957Z,98649.44
2023-07-18T04:28:31.182Z,98642.78
2023-07-18T04:30:57.975Z,98652.63
2023-07-18T04:33:26.036Z,98674.09
2023-07-18T04:35:53.105Z,98648.06
2023-07-18T04:38:20.019Z,98636.69
2023-07-18T04:40:46.782Z,98636.59
2023-07-18T04:43:13.573Z,98631.06
2023-07-18T04:45:45.835Z,98557.22
2023-07-18T04:48:17.356Z,98623.94
2023-07-18T04:50:45.508Z,98578.78
2023-07-18T04:53:12.793Z,98576.59
2023-07-18T04:55:40.256Z,98555.13
2023-07-18T04:58:08.547Z,98595.06
2023-07-18T05:00:35.755Z,98620.13
2023-07-18T05:03:02.728Z,98629.25
2023-07-18T05:05:30.841Z,98581.41
2023-07-18T05:08:03.183Z,98611.38
2023-07-18T05:10:30.718Z,98619.03
2023-07-18T05:12:57.867Z,98617.94
2023-07-18T05:15:24.864Z,98550.75
2023-07-18T05:17:51.993Z,98594.69
2023-07-18T05:20:20.341Z,98609.84
2023-07-18T05:22:47.463Z,98526.94
2023-07-18T05:25:16.900Z,98551.50
2023-07-18T05:27:44.341Z,98588.41
2023-07-18T05:30:16.813Z,98617.84
2023-07-18T05:32:44.267Z,98600.13
2023-07-18T05:35:17.236Z,98539.31
2023-07-18T05:37:45.472Z,98490.56
2023-07-18T05:40:13.363Z,98510.66
2023-07-18T05:42:41.996Z,98571.88
2023-07-18T05:45:10.218Z,98567.53
2023-07-18T05:47:38.828Z,98567.44
2023-07-18T05:50:07.604Z,98585.19
2023-07-18T05:52:35.548Z,98599.03
2023-07-18T05:55:05.567Z,98620.56
2023-07-18T05:57:32.717Z,98634.88
2023-07-18T05:59:59.666Z,98628.88
2023-07-18T06:02:26.596Z,98665.53
2023-07-18T06:04:54.259Z,98665.59
2023-07-18T06:07:21.091Z,98654.47
2023-07-18T06:09:53.614Z,98683.88
2023-07-18T06:12:20.582Z,98704.91
2023-07-18T06:14:47.573Z,98712.69
2023-07-18T06:17:15.080Z,98722.72
2023-07-18T06:19:42.053Z,98719.41
2023-07-18T06:22:10.568Z,98700.03
2023-07-18T06:24:37.542Z,98700.66
2023-07-18T06:27:04.687Z,98699.72
2023-07-18T06:29:32.509Z,98691.53
2023-07-18T06:32:01.184Z,98566.53
2023-07-18T06:34:31.808Z,98690.94
2023-07-18T06:37:03.521Z,98692.25
2023-07-18T06:39:30.671Z,98690.63
2023-07-18T06:41:58.808Z,98274.66
2023-07-18T06:44:25.926Z,98681.66
2023-07-18T06:46:52.885Z,98673.09
2023-07-18T06:49:21.871Z,98647.00
2023-07-18T06:51:50.545Z,98608.00
2023-07-18T06:54:17.367Z,98714.44
2023-07-18T06:56:45.894Z,98670.94
2023-07-18T06:59:14.879Z,98652.34
2023-07-18T07:01:42.639Z,98666.88
2023-07-18T07:04:10.022Z,98637.31
2023-07-18T07:06:42.889Z,98734.63
2023-07-18T07:09:16.694Z,98753.00
2023-07-18T07:11:44.788Z,98705.28
2023-07-18T07:14:12.813Z,98678.84
2023-07-18T07:16:40.352Z,98789.09
2023-07-18T07:19:07.657Z,98663.84
2023-07-18T07:21:35.080Z,98787.88
2023-07-18T07:24:01.965Z,98777.97
2023-07-18T07:26:28.957Z,98778.06
2023-07-18T07:28:55.865Z,98783.09
2023-07-18T07:31:22.934Z,98740.47
2023-07-18T07:33:50.003Z,98773.34
2023-07-18T07:36:17.092Z,98779.16
2023-07-18T07:38:43.816Z,98773.66
2023-07-18T07:41:10.668Z,98652.00
2023-07-18T07:43:37.405Z,98773.53
2023-07-18T07:46:05.087Z,98777.53
2023-07-18T07:48:31.893Z,98763.59
2023-07-18T07:51:04.900Z,98732.03
2023-07-18T07:53:32.036Z,98750.41
2023-07-18T07:55:58.759Z,98753.31
2023-07-18T07:58:25.654Z,98674.50
2023-07-18T08:00:52.649Z,98654.34
2023-07-18T08:03:19.759Z,98746.50
2023-07-18T08:05:46.635Z,98741.16
2023-07-18T08:08:13.574Z,98742.31
2023-07-18T08:10:40.790Z,98746.66
2023-07-18T08:13:07.731Z,98743.59
2023-07-18T08:15:34.728Z,98722.81
2023-07-18T08:18:02.280Z,98752.03
2023-07-18T08:20:29.346Z,98645.13
2023-07-18T08:22:56.549Z,98762.06
2023-07-18T08:25:23.589Z,98760.00
2023-07-18T08:27:50.287Z,98760.25
2023-07-18T08:30:17.283Z,98761.13
2023-07-18T08:32:44.068Z,98716.53
2023-07-18T08:35:11.156Z,98760.06
2023-07-18T08:37:38.002Z,98768.59
2023-07-18T08:40:06.627Z,98777.06
2023-07-18T08:42:34.722Z,98753.25
2023-07-18T08:45:04.354Z,98760.31
2023-07-18T08:47:31.480Z,98735.78
2023-07-18T08:50:00.080Z,98715.09
2023-07-18T08:52:27.060Z,98779.72
2023-07-18T08:54:54.055Z,98774.75
2023-07-18T08:57:21.691Z,98732.59
2023-07-18T08:59:50.289Z,98702.94
2023-07-18T09:02:17.598Z,98769.16
2023-07-18T09:04:47.202Z,98799.59
2023-07-18T09:07:15.699Z,98778.91
2023-07-18T09:09:48.329Z,98689.03
2023-07-18T09:12:16.159Z,98724.25
2023-07-18T09:14:43.417Z,98781.34
2023-07-18T09:17:10.503Z,98745.38
2023-07-18T09:19:44.859Z,98774.66
2023-07-18T09:22:14.035Z,98773.72
2023-07-18T09:24:42.428Z,98712.13
2023-07-18T09:27:17.143Z,98715.78
2023-07-18T09:29:46.229Z,98799.56
2023-07-18T09:32:20.651Z,98785.06
2023-07-18T09:34:54.749Z,98809.22
2023-07-18T09:37:22.054Z,98784.63
2023-07-18T09:39:50.208Z,98781.78
2023-07-18T09:42:20.374Z,98703.94
2023-07-18T09:44:51.541Z,98802.03
2023-07-18T09:47:19.845Z,98784.19
2023-07-18T09:49:47.450Z,98756.28
2023-07-18T09:52:17.217Z,98737.63
2023-07-18T09:54:44.794Z,98800.59
2023-07-18T09:57:13.185Z,98804.09
2023-07-18T09:59:40.996Z,98788.53
2023-07-18T10:02:11.494Z,98785.94
2023-07-18T10:04:39.499Z,98716.78
2023-07-18T10:07:10.538Z,98782.16
2023-07-18T10:09:38.673Z,98693.97
2023-07-18T10:12:09.442Z,98801.25
2023-07-18T10:14:50.031Z,98812.25
2023-07-18T10:17:43.911Z,98806.16
2023-07-18T10:20:14.153Z,98836.59
2023-07-18T10:22:53.972Z,98748.25
2023-07-18T10:25:21.216Z,98825.59
2023-07-18T10:27:50.220Z,98762.16
2023-07-18T10:30:20.017Z,98836.66
2023-07-18T10:32:57.843Z,98853.34
2023-07-18T10:35:27.826Z,98869.94
2023-07-18T10:37:57.104Z,98879.13
2023-07-18T10:40:38.080Z,98900.69
2023-07-18T10:43:09.897Z,98861.31
2023-07-18T10:45:41.864Z,98849.59
2023-07-18T10:48:21.708Z,98916.44
2023-07-18T10:50:49.778Z,98869.91
2023-07-18T10:53:19.502Z,99003.19
2023-07-18T10:55:47.507Z,98983.06
2023-07-18T10:58:20.288Z,98968.78
2023-07-18T11:00:49.224Z,98978.13
2023-07-18T11:03:32.536Z,98918.13
2023-07-18T11:05:59.527Z,98959.81
2023-07-18T11:08:27.714Z,98865.88
2023-07-18T11:11:03.828Z,98954.06
2023-07-18T11:13:35.801Z,98914.56
2023-07-18T11:16:09.989Z,98894.25
2023-07-18T11:18:39.202Z,98921.13
2023-07-18T11:21:07.302Z,98875.63
2023-07-18T11:23:36.175Z,98883.28
2023-07-18T11:26:14.954Z,98934.59
2023-07-18T11:28:44.897Z,98883.31
2023-07-18T11:31:40.471Z,98919.25
2023-07-18T11:34:08.852Z,98963.81
2023-07-18T11:36:37.878Z,98954.59
2023-07-18T11:39:20.600Z,98934.63
2023-07-18T11:41:48.348Z,98914.00
2023-07-18T11:44:25.139Z,98925.63
2023-07-18T11:46:54.145Z,98906.88
2023-07-18T11:49:34.135Z,98890.69
2023-07-18T11:52:05.399Z,98907.84
2023-07-18T11:54:35.643Z,98877.13
2023-07-18T11:57:05.413Z,98927.91
2023-07-18T11:59:33.271Z,98805.59
2023-07-18T12:02:00.867Z,98875.53
2023-07-18T12:04:28.104Z,98797.44
2023-07-18T12:06:55.506Z,98870.44
2023-07-18T12:09:22.574Z,98791.00
2023-07-18T12:11:49.407Z,98857.69
2023-07-18T12:14:16.272Z,98873.94
2023-07-18T12:16:43.088Z,98874.28
2023-07-18T12:19:10.482Z,98848.03
2023-07-18T12:21:37.766Z,98857.59
2023-07-18T12:24:05.612Z,98866.22
2023-07-18T12:26:32.534Z,98848.16
2023-07-18T12:29:00.022Z,98867.47
2023-07-18T12:31:27.060Z,98838.88
2023-07-18T12:33:54.319Z,98851.00
2023-07-18T12:36:21.580Z,98877.16
2023-07-18T12:38:49.491Z,98879.19
2023-07-18T12:41:18.715Z,98836.56
2023-07-18T12:43:46.151Z,98842.31
2023-07-18T12:46:13.179Z,98830.88
2023-07-18T12:48:50.047Z,98879.00
2023-07-18T12:51:17.385Z,98864.66
2023-07-18T12:53:44.404Z,98858.97
2023-07-18T12:56:11.421Z,98886.97
2023-07-18T12:58:38.259Z,98861.66
2023-07-18T13:01:05.528Z,98799.31
2023-07-18T13:03:34.188Z,98810.19
2023-07-18T13:06:01.973Z,98861.00
2023-07-18T13:08:29.946Z,98826.59
2023-07-18T13:10:56.953Z,98868.59
2023-07-18T13:13:24.218Z,98857.19
2023-07-18T13:15:51.127Z,98858.06
2023-07-18T13:18:18.252Z,98871.50
2023-07-18T13:20:46.009Z,98863.31
2023-07-18T13:23:13.112Z,98772.38
2023-07-18T13:25:40.020Z,98855.66
2023-07-18T13:28:06.833Z,98858.59
2023-07-18T13:30:35.826Z,98856.66
2023-07-18T13:33:03.000Z,98858.88
2023-07-18T13:35:29.962Z,98845.28
2023-07-18T13:37:58.178Z,98873.19
2023-07-18T13:40:25.224Z,98880.25
2023-07-18T13:42:52.248Z,98872.50
2023-07-18T13:45:19.268Z,98872.06
2023-07-18T13:47:46.332Z,98822.78
2023-07-18T13:52:45.432Z,98842.69
2023-07-18T13:55:12.266Z,98809.13
2023-07-18T13:57:39.177Z,98866.66
2023-07-18T14:00:06.842Z,98842.13
2023-07-18T14:02:39.556Z,98856.72
2023-07-18T14:05:06.895Z,98853.63
2023-07-18T14:07:34.559Z,98849.22
2023-07-18T14:10:01.423Z,98830.06
2023-07-18T14:12:28.566Z,98828.63
2023-07-18T14:14:55.418Z,98850.91
2023-07-18T14:17:22.402Z,98851.97
2023-07-18T14:19:49.514Z,98859.94
2023-07-18T14:22:17.900Z,98832.88
2023-07-18T14:24:44.678Z,98853.19
2023-07-18T14:27:13.837Z,98833.84
2023-07-18T14:29:42.265Z,98849.78
2023-07-18T14:32:12.259Z,98823.75
2023-07-18T14:34:40.488Z,98811.97
2023-07-18T14:37:07.807Z,98789.53
2023-07-18T14:39:39.628Z,98830.72
2023-07-18T14:42:08.993Z,98836.25
2023-07-18T14:44:36.586Z,98837.75
2023-07-18T14:47:04.439Z,98844.97
2023-07-18T14:49:31.591Z,98841.59
2023-07-18T14:51:58.958Z,98834.59
2023-07-18T14:54:26.079Z,98793.44
2023-07-18T14:56:52.827Z,98829.28
2023-07-18T14:59:19.899Z,98848.63
2023-07-18T15:01:46.875Z,98843.25
2023-07-18T15:04:14.050Z,98812.88
2023-07-18T15:06:41.127Z,98831.28
2023-07-18T15:09:08.016Z,98823.72
2023-07-18T15:11:34.946Z,98829.53
2023-07-18T15:14:01.952Z,98839.63
2023-07-18T15:16:30.097Z,98785.88
2023-07-18T15:18:56.907Z,98821.69
2023-07-18T15:21:23.851Z,98797.91
2023-07-18T15:23:50.631Z,98765.50
2023-07-18T15:26:17.740Z,98828.63
2023-07-18T15:28:45.162Z,98761.03
2023-07-18T15:31:11.938Z,98743.38
2023-07-18T15:33:38.726Z,98842.47
2023-07-18T15:36:06.068Z,98757.50
2023-07-18T15:38:33.224Z,98833.22
2023-07-18T15:41:00.728Z,98834.31
2023-07-18T15:43:27.479Z,98830.28
2023-07-18T15:45:55.808Z,98837.94
2023-07-18T15:48:22.637Z,98790.25
2023-07-18T15:50:52.818Z,98695.75
2023-07-18T15:53:19.796Z,98702.81
2023-07-18T15:55:47.021Z,98799.16
2023-07-18T15:58:13.947Z,98786.69
2023-07-18T16:00:41.418Z,98834.50
2023-07-18T16:03:08.369Z,98826.19
2023-07-18T16:05:35.508Z,98807.97
2023-07-18T16:08:02.425Z,98839.03
2023-07-18T16:10:29.260Z,98841.66
2023-07-18T16:12:56.125Z,98841.38
2023-07-18T16:15:23.148Z,98776.47
2023-07-18T16:17:49.979Z,98844.84
2023-07-18T16:20:17.067Z,98800.97
2023-07-18T16:22:51.253Z,98856.91
2023-07-18T16:25:18.123Z,98843.78
2023-07-18T16:27:47.179Z,98742.56
2023-07-18T16:30:14.562Z,98864.31
2023-07-18T16:32:42.170Z,98677.19
2023-07-18T16:35:09.876Z,98771.13
2023-07-18T16:37:36.654Z,98822.59
2023-07-18T16:40:05.620Z,98843.97
2023-07-18T16:42:32.698Z,98792.00
2023-07-18T16:45:01.854Z,98855.19
2023-07-18T16:47:28.931Z,98776.25
2023-07-18T16:49:55.775Z,98806.03
2023-07-18T16:52:22.528Z,98850.44
2023-07-18T16:54:49.307Z,98834.16
2023-07-18T16:57:17.625Z,98839.91
2023-07-18T16:59:44.599Z,98851.03
2023-07-18T17:02:11.570Z,98858.78
2023-07-18T17:04:38.468Z,98866.06
2023-07-18T17:07:05.777Z,98864.41
2023-07-18T17:09:32.750Z,98864.31
2023-07-18T17:12:00.564Z,98861.47
2023-07-18T17:14:27.789Z,98869.75
2023-07-18T17:16:54.737Z,98783.19
2023-07-18T17:19:21.525Z,98862.72
2023-07-18T17:21:51.171Z,98863.28
2023-07-18T17:24:20.667Z,98853.59
2023-07-18T17:26:49.423Z,98852.31
2023-07-18T17:29:18.765Z,98866.63
2023-07-18T17:31:46.066Z,98642.66
2023-07-18T17:34:13.276Z,98817.56
2023-07-18T17:36:40.723Z,98851.69
2023-07-18T17:39:08.980Z,98853.09
2023-07-18T17:41:36.138Z,98863.38
2023-07-18T17:44:04.768Z,98863.28
2023-07-18T17:46:32.069Z,98824.06
2023-07-18T17:48:59.084Z,98868.91
2023-07-18T17:51:26.193Z,98826.78
2023-07-18T17:53:55.463Z,98858.59
2023-07-18T17:56:23.589Z,98764.91
2023-07-18T17:58:50.670Z,98881.16
2023-07-18T18:01:17.849Z,98887.97
2023-07-18T18:03:45.343Z,98890.47
2023-07-18T18:06:12.429Z,98887.38
2023-07-18T18:08:39.914Z,98880.63
2023-07-18T18:11:07.347Z,98899.78
2023-07-18T18:13:34.346Z,98865.94
2023-07-18T18:16:08.739Z,98851.31
2023-07-18T18:18:49.792Z,98836.59
2023-07-18T18:21:19.976Z,98885.50
2023-07-18T18:23:50.023Z,98884.22
2023-07-18T18:26:17.082Z,98828.94
2023-07-18T18:28:44.284Z,98890.69
2023-07-18T18:31:11.569Z,98890.38
2023-07-18T18:33:38.663Z,98894.00
2023-07-18T18:36:06.120Z,98853.00
2023-07-18T18:38:33.222Z,98819.50
2023-07-18T18:41:00.157Z,98899.16
2023-07-18T18:43:28.723Z,98882.59
2023-07-18T18:45:56.128Z,98821.31
2023-07-18T18:48:31.645Z,98873.75
2023-07-18T18:50:59.709Z,98881.97
2023-07-18T18:53:28.699Z,98903.84
2023-07-18T18:55:58.416Z,98898.28
2023-07-18T18:58:25.612Z,98898.59
2023-07-18T19:00:53.073Z,98835.84
2023-07-18T19:03:20.392Z,98894.84
2023-07-18T19:05:47.895Z,98856.56
2023-07-18T19:08:15.425Z,98916.91
2023-07-18T19:10:56.262Z,98898.16
2023-07-18T19:13:28.792Z,98910.19
2023-07-18T19:15:55.793Z,98894.06
2023-07-18T19:18:22.655Z,98846.75
2023-07-18T19:20:49.697Z,98901.47
2023-07-18T19:23:19.870Z,98905.25
2023-07-18T19:25:48.174Z,98836.09
2023-07-18T19:28:18.040Z,98919.75
2023-07-18T19:30:45.462Z,98908.56
2023-07-18T19:33:12.960Z,98911.53
2023-07-18T19:35:40.392Z,98879.94
2023-07-18T19:38:11.037Z,98912.34
2023-07-18T19:40:38.490Z,98906.94
2023-07-18T19:43:06.361Z,98932.91
2023-07-18T19:45:33.952Z,98916.13
2023-07-18T19:48:01.491Z,98918.78
2023-07-18T19:50:29.112Z,98924.19
2023-07-18T19:52:56.863Z,98880.97
2023-07-18T19:55:25.278Z,98895.28
2023-07-18T19:57:54.879Z,98924.88
2023-07-18T20:00:22.265Z,98898.06
2023-07-18T20:02:49.706Z,98922.09
2023-07-18T20:05:22.394Z,98929.00
2023-07-18T20:07:52.133Z,98879.63
2023-07-18T20:10:19.518Z,98917.00
2023-07-18T20:12:46.780Z,98921.25
2023-07-18T20:15:13.963Z,98916.47
2023-07-18T20:17:44.481Z,98798.06
2023-07-18T20:20:12.459Z,98908.91
2023-07-18T20:22:39.649Z,98920.59
2023-07-18T20:25:07.151Z,98889.19
2023-07-18T20:27:39.249Z,98898.06
2023-07-18T20:30:07.017Z,98891.44
2023-07-18T20:32:37.210Z,98869.53
2023-07-18T20:35:05.391Z,98911.38
2023-07-18T20:37:32.394Z,98877.44
2023-07-18T20:40:02.047Z,98941.28
2023-07-18T20:42:31.218Z,98898.06
2023-07-18T20:44:59.114Z,98853.91
2023-07-18T20:47:26.036Z,98908.25
2023-07-18T20:49:52.813Z,98915.16
2023-07-18T20:52:22.833Z,98893.22
2023-07-18T20:54:49.673Z,98906.28
2023-07-18T20:57:20.184Z,98910.38
2023-07-18T20:59:47.638Z,98829.91
2023-07-18T21:02:14.594Z,98834.19
2023-07-18T21:04:41.551Z,98913.09
2023-07-18T21:07:08.406Z,98898.13
2023-07-18T21:09:53.988Z,98884.78
2023-07-18T21:13:02.086Z,98871.16
2023-07-18T21:15:59.287Z,98877.56
2023-07-18T21:18:38.366Z,98820.63
2023-07-18T21:27:03.349Z,98896.94
2023-07-18T21:29:41.248Z,98869.28
2023-07-18T21:32:47.975Z,98869.75
2023-07-18T21:35:26.760Z,98915.63
2023-07-18T21:38:02.028Z,98875.97
2023-07-18T21:40:41.199Z,98900.16
2023-07-18T21:43:11.754Z,98889.47
2023-07-18T21:45:41.833Z,98870.84
2023-07-18T21:48:20.796Z,98892.56
2023-07-18T21:51:16.387Z,98886.28
2023-07-18T21:54:01.864Z,98895.16
2023-07-18T21:56:58.608Z,98886.59
2023-07-18T21:59:40.360Z,98896.28
2023-07-18T22:02:15.000Z,98871.97
2023-07-18T22:04:48.066Z,98836.19
2023-07-18T22:07:23.524Z,98738.13
2023-07-18T22:09:55.868Z,98893.66
2023-07-18T22:12:39.267Z,98832.53
2023-07-18T22:15:15.267Z,98824.28
2023-07-18T22:20:30.642Z,98890.63
2023-07-18T22:22:59.175Z,98885.28
2023-07-18T22:25:29.306Z,98874.53
2023-07-18T22:28:00.907Z,98895.28
2023-07-18T22:30:28.035Z,98837.66
2023-07-18T22:32:55.690Z,98892.66
2023-07-18T22:35:23.097Z,98892.66
2023-07-18T22:37:52.810Z,98791.44
2023-07-18T22:40:20.116Z,98887.34
2023-07-18T22:42:47.837Z,98897.34
2023-07-18T22:45:16.794Z,98834.63
2023-07-18T22:48:02.410Z,98857.38
2023-07-18T22:50:38.208Z,98844.88
2023-07-18T22:53:06.840Z,98857.50
2023-07-18T22:55:34.091Z,98888.00
2023-07-18T22:58:01.043Z,98832.28
2023-07-18T23:00:28.106Z,98887.16
2023-07-18T23:02:55.271Z,98854.69
2023-07-18T23:05:23.037Z,98890.56
2023-07-18T23:07:49.856Z,98878.34
2023-07-18T23:13:01.053Z,98829.88
2023-07-18T23:15:30.181Z,98824.94
2023-07-18T23:17:57.519Z,98872.81
2023-07-18T23:20:27.943Z,98848.44
2023-07-18T23:22:56.026Z,98877.25
2023-07-18T23:25:22.956Z,98890.22
2023-07-18T23:27:49.732Z,98865.00
2023-07-18T23:30:16.723Z,98754.13
2023-07-18T23:32:43.528Z,98848.53
2023-07-18T23:35:10.816Z,98803.53
2023-07-18T23:37:37.669Z,98883.06
2023-07-18T23:40:04.870Z,98826.38
2023-07-18T23:42:31.585Z,98872.44
2023-07-18T23:44:59.574Z,98839.38
2023-07-18T23:47:26.488Z,98891.81
2023-07-18T23:49:53.413Z,98873.03
2023-07-18T23:52:20.335Z,98817.97
2023-07-18T23:54:47.285Z,98867.25
2023-07-18T23:57:13.994Z,98885.53
2023-07-18T23:59:40.745Z,98889.13
